sensor_id;sensor_type;location;lat;lon;timestamp;P1;durP1;ratioP1;P2;durP2;ratioP2
74100;SDS011;62462;52.530;21.682;2023-03-12T00:00:47;8.47;;;4.87;;
74100;SDS011;62462;52.530;21.682;2023-03-12T00:03:13;12.30;;;5.30;;
74100;SDS011;62462;52.530;21.682;2023-03-12T00:05:40;10.87;;;5.07;;
74100;SDS011;62462;52.530;21.682;2023-03-12T00:08:06;10.77;;;4.37;;
74100;SDS011;62462;52.530;21.682;2023-03-12T00:10:34;9.17;;;4.73;;
74100;SDS011;62462;52.530;21.682;2023-03-12T00:13:07;11.07;;;4.67;;
74100;SDS011;62462;52.530;21.682;2023-03-12T00:15:36;12.33;;;4.30;;
74100;SDS011;62462;52.530;21.682;2023-03-12T00:18:03;11.80;;;4.53;;
74100;SDS011;62462;52.530;21.682;2023-03-12T00:20:29;12.17;;;4.67;;
74100;SDS011;62462;52.530;21.682;2023-03-12T00:22:55;13.53;;;5.40;;
74100;SDS011;62462;52.530;21.682;2023-03-12T00:25:21;11.43;;;4.83;;
74100;SDS011;62462;52.530;21.682;2023-03-12T00:27:53;9.27;;;4.67;;
74100;SDS011;62462;52.530;21.682;2023-03-12T00:30:24;9.17;;;4.47;;
74100;SDS011;62462;52.530;21.682;2023-03-12T00:32:53;9.83;;;4.90;;
74100;SDS011;62462;52.530;21.682;2023-03-12T00:35:24;10.63;;;4.90;;
74100;SDS011;62462;52.530;21.682;2023-03-12T00:37:55;11.00;;;5.20;;
74100;SDS011;62462;52.530;21.682;2023-03-12T00:40:20;12.00;;;4.77;;
74100;SDS011;62462;52.530;21.682;2023-03-12T00:42:46;12.30;;;5.07;;
74100;SDS011;62462;52.530;21.682;2023-03-12T00:45:12;10.33;;;4.67;;
74100;SDS011;62462;52.530;21.682;2023-03-12T00:47:37;11.70;;;5.87;;
74100;SDS011;62462;52.530;21.682;2023-03-12T00:50:03;11.20;;;5.30;;
74100;SDS011;62462;52.530;21.682;2023-03-12T00:52:29;10.77;;;4.77;;
74100;SDS011;62462;52.530;21.682;2023-03-12T00:54:55;13.80;;;5.13;;
74100;SDS011;62462;52.530;21.682;2023-03-12T00:57:23;10.50;;;5.67;;
74100;SDS011;62462;52.530;21.682;2023-03-12T00:59:49;11.17;;;5.30;;
74100;SDS011;62462;52.530;21.682;2023-03-12T01:02:14;13.60;;;5.10;;
74100;SDS011;62462;52.530;21.682;2023-03-12T01:04:40;11.67;;;4.90;;
74100;SDS011;62462;52.530;21.682;2023-03-12T01:07:06;8.97;;;5.00;;
74100;SDS011;62462;52.530;21.682;2023-03-12T01:09:32;13.23;;;6.17;;
74100;SDS011;62462;52.530;21.682;2023-03-12T01:11:57;13.73;;;4.97;;
74100;SDS011;62462;52.530;21.682;2023-03-12T01:14:23;9.33;;;4.80;;
74100;SDS011;62462;52.530;21.682;2023-03-12T01:16:49;12.00;;;5.43;;
74100;SDS011;62462;52.530;21.682;2023-03-12T01:19:15;12.80;;;5.83;;
74100;SDS011;62462;52.530;21.682;2023-03-12T01:21:40;15.20;;;5.33;;
74100;SDS011;62462;52.530;21.682;2023-03-12T01:24:06;13.77;;;7.00;;
74100;SDS011;62462;52.530;21.682;2023-03-12T01:26:32;14.63;;;6.80;;
74100;SDS011;62462;52.530;21.682;2023-03-12T01:28:58;10.83;;;5.50;;
74100;SDS011;62462;52.530;21.682;2023-03-12T01:31:23;14.40;;;5.87;;
74100;SDS011;62462;52.530;21.682;2023-03-12T01:33:50;11.23;;;5.47;;
74100;SDS011;62462;52.530;21.682;2023-03-12T01:36:21;11.97;;;5.40;;
74100;SDS011;62462;52.530;21.682;2023-03-12T01:38:53;16.07;;;7.83;;
74100;SDS011;62462;52.530;21.682;2023-03-12T01:41:20;16.47;;;6.83;;
74100;SDS011;62462;52.530;21.682;2023-03-12T01:43:47;12.00;;;5.80;;
74100;SDS011;62462;52.530;21.682;2023-03-12T01:46:30;15.17;;;6.30;;
74100;SDS011;62462;52.530;21.682;2023-03-12T01:54:28;17.45;;;7.40;;
74100;SDS011;62462;52.530;21.682;2023-03-12T01:56:59;15.57;;;6.50;;
74100;SDS011;62462;52.530;21.682;2023-03-12T01:59:48;15.10;;;6.47;;
74100;SDS011;62462;52.530;21.682;2023-03-12T02:02:16;13.83;;;6.20;;
74100;SDS011;62462;52.530;21.682;2023-03-12T02:04:47;19.13;;;9.57;;
74100;SDS011;62462;52.530;21.682;2023-03-12T02:07:16;14.87;;;7.50;;
74100;SDS011;62462;52.530;21.682;2023-03-12T02:09:42;16.43;;;7.37;;
74100;SDS011;62462;52.530;21.682;2023-03-12T02:12:12;13.93;;;7.30;;
74100;SDS011;62462;52.530;21.682;2023-03-12T02:14:38;14.43;;;6.93;;
74100;SDS011;62462;52.530;21.682;2023-03-12T02:17:04;14.40;;;7.93;;
74100;SDS011;62462;52.530;21.682;2023-03-12T02:22:35;16.02;;;7.82;;
74100;SDS011;62462;52.530;21.682;2023-03-12T02:30:12;14.97;;;7.23;;
74100;SDS011;62462;52.530;21.682;2023-03-12T02:32:40;20.30;;;8.03;;
74100;SDS011;62462;52.530;21.682;2023-03-12T02:35:08;18.00;;;8.00;;
74100;SDS011;62462;52.530;21.682;2023-03-12T02:37:34;16.83;;;8.63;;
74100;SDS011;62462;52.530;21.682;2023-03-12T02:40:10;21.07;;;9.20;;
74100;SDS011;62462;52.530;21.682;2023-03-12T02:42:41;14.07;;;7.43;;
74100;SDS011;62462;52.530;21.682;2023-03-12T02:45:07;15.90;;;8.20;;
74100;SDS011;62462;52.530;21.682;2023-03-12T02:47:33;19.10;;;8.17;;
74100;SDS011;62462;52.530;21.682;2023-03-12T02:49:58;16.13;;;8.30;;
74100;SDS011;62462;52.530;21.682;2023-03-12T02:52:24;14.70;;;7.67;;
74100;SDS011;62462;52.530;21.682;2023-03-12T02:54:50;19.93;;;8.73;;
74100;SDS011;62462;52.530;21.682;2023-03-12T02:57:16;13.80;;;7.80;;
74100;SDS011;62462;52.530;21.682;2023-03-12T02:59:42;14.97;;;7.07;;
74100;SDS011;62462;52.530;21.682;2023-03-12T03:02:07;14.67;;;7.43;;
74100;SDS011;62462;52.530;21.682;2023-03-12T03:04:33;18.23;;;8.30;;
74100;SDS011;62462;52.530;21.682;2023-03-12T03:06:59;14.47;;;6.80;;
74100;SDS011;62462;52.530;21.682;2023-03-12T03:09:25;14.17;;;7.70;;
74100;SDS011;62462;52.530;21.682;2023-03-12T03:11:52;12.90;;;6.67;;
74100;SDS011;62462;52.530;21.682;2023-03-12T03:14:17;15.20;;;7.60;;
74100;SDS011;62462;52.530;21.682;2023-03-12T03:16:43;14.27;;;7.53;;
74100;SDS011;62462;52.530;21.682;2023-03-12T03:19:09;17.20;;;8.37;;
74100;SDS011;62462;52.530;21.682;2023-03-12T03:21:35;13.87;;;7.80;;
74100;SDS011;62462;52.530;21.682;2023-03-12T03:24:01;12.97;;;7.07;;
74100;SDS011;62462;52.530;21.682;2023-03-12T03:26:27;13.23;;;7.20;;
74100;SDS011;62462;52.530;21.682;2023-03-12T03:28:53;12.60;;;6.83;;
74100;SDS011;62462;52.530;21.682;2023-03-12T03:31:19;13.23;;;6.87;;
74100;SDS011;62462;52.530;21.682;2023-03-12T03:33:45;16.83;;;7.90;;
74100;SDS011;62462;52.530;21.682;2023-03-12T03:36:11;19.30;;;9.00;;
74100;SDS011;62462;52.530;21.682;2023-03-12T03:38:39;16.93;;;7.80;;
74100;SDS011;62462;52.530;21.682;2023-03-12T03:41:05;13.90;;;7.00;;
74100;SDS011;62462;52.530;21.682;2023-03-12T03:43:31;13.70;;;7.37;;
74100;SDS011;62462;52.530;21.682;2023-03-12T03:45:58;15.50;;;7.10;;
74100;SDS011;62462;52.530;21.682;2023-03-12T03:48:25;16.37;;;7.17;;
74100;SDS011;62462;52.530;21.682;2023-03-12T03:50:51;13.50;;;7.50;;
74100;SDS011;62462;52.530;21.682;2023-03-12T03:53:17;12.43;;;7.10;;
74100;SDS011;62462;52.530;21.682;2023-03-12T03:55:44;13.10;;;7.07;;
74100;SDS011;62462;52.530;21.682;2023-03-12T03:58:10;15.23;;;7.37;;
74100;SDS011;62462;52.530;21.682;2023-03-12T04:00:36;16.10;;;7.37;;
74100;SDS011;62462;52.530;21.682;2023-03-12T04:03:02;17.90;;;8.53;;
74100;SDS011;62462;52.530;21.682;2023-03-12T04:05:28;13.03;;;7.03;;
74100;SDS011;62462;52.530;21.682;2023-03-12T04:07:54;18.47;;;7.03;;
74100;SDS011;62462;52.530;21.682;2023-03-12T04:10:21;16.70;;;7.20;;
74100;SDS011;62462;52.530;21.682;2023-03-12T04:12:48;14.33;;;8.00;;
74100;SDS011;62462;52.530;21.682;2023-03-12T04:15:14;13.70;;;7.03;;
74100;SDS011;62462;52.530;21.682;2023-03-12T04:17:40;15.93;;;7.13;;
74100;SDS011;62462;52.530;21.682;2023-03-12T04:20:06;11.60;;;7.23;;
74100;SDS011;62462;52.530;21.682;2023-03-12T04:22:34;18.43;;;8.07;;
74100;SDS011;62462;52.530;21.682;2023-03-12T04:25:00;14.70;;;7.60;;
74100;SDS011;62462;52.530;21.682;2023-03-12T04:27:26;16.87;;;7.63;;
74100;SDS011;62462;52.530;21.682;2023-03-12T04:29:52;16.07;;;7.77;;
74100;SDS011;62462;52.530;21.682;2023-03-12T04:32:18;17.80;;;8.37;;
74100;SDS011;62462;52.530;21.682;2023-03-12T04:34:44;15.37;;;7.67;;
74100;SDS011;62462;52.530;21.682;2023-03-12T04:37:09;14.37;;;7.93;;
74100;SDS011;62462;52.530;21.682;2023-03-12T04:39:38;13.80;;;7.63;;
74100;SDS011;62462;52.530;21.682;2023-03-12T04:42:04;16.27;;;9.33;;
74100;SDS011;62462;52.530;21.682;2023-03-12T04:44:31;12.97;;;7.50;;
74100;SDS011;62462;52.530;21.682;2023-03-12T04:46:56;13.83;;;7.83;;
74100;SDS011;62462;52.530;21.682;2023-03-12T04:49:22;12.90;;;7.60;;
74100;SDS011;62462;52.530;21.682;2023-03-12T04:51:48;14.23;;;7.20;;
74100;SDS011;62462;52.530;21.682;2023-03-12T04:54:13;14.60;;;8.03;;
74100;SDS011;62462;52.530;21.682;2023-03-12T04:56:39;13.67;;;7.37;;
74100;SDS011;62462;52.530;21.682;2023-03-12T04:59:05;13.77;;;7.67;;
74100;SDS011;62462;52.530;21.682;2023-03-12T05:01:32;15.57;;;7.67;;
74100;SDS011;62462;52.530;21.682;2023-03-12T05:04:00;12.70;;;7.57;;
74100;SDS011;62462;52.530;21.682;2023-03-12T05:06:26;11.70;;;6.73;;
74100;SDS011;62462;52.530;21.682;2023-03-12T05:08:53;11.77;;;7.20;;
74100;SDS011;62462;52.530;21.682;2023-03-12T05:11:19;15.07;;;7.10;;
74100;SDS011;62462;52.530;21.682;2023-03-12T05:13:45;13.93;;;6.80;;
74100;SDS011;62462;52.530;21.682;2023-03-12T05:16:12;12.13;;;6.80;;
74100;SDS011;62462;52.530;21.682;2023-03-12T05:18:38;11.63;;;7.17;;
74100;SDS011;62462;52.530;21.682;2023-03-12T05:21:05;9.63;;;6.30;;
74100;SDS011;62462;52.530;21.682;2023-03-12T05:23:36;10.87;;;6.43;;
74100;SDS011;62462;52.530;21.682;2023-03-12T05:26:06;10.97;;;7.00;;
74100;SDS011;62462;52.530;21.682;2023-03-12T05:28:39;14.10;;;7.43;;
74100;SDS011;62462;52.530;21.682;2023-03-12T05:31:07;12.70;;;6.87;;
74100;SDS011;62462;52.530;21.682;2023-03-12T05:33:34;12.23;;;6.57;;
74100;SDS011;62462;52.530;21.682;2023-03-12T05:36:00;11.77;;;6.57;;
74100;SDS011;62462;52.530;21.682;2023-03-12T05:38:26;10.33;;;6.27;;
74100;SDS011;62462;52.530;21.682;2023-03-12T05:40:53;20.40;;;7.67;;
74100;SDS011;62462;52.530;21.682;2023-03-12T05:43:20;12.90;;;5.87;;
74100;SDS011;62462;52.530;21.682;2023-03-12T05:45:46;11.83;;;6.90;;
74100;SDS011;62462;52.530;21.682;2023-03-12T05:48:12;9.23;;;6.50;;
74100;SDS011;62462;52.530;21.682;2023-03-12T05:50:37;11.00;;;6.47;;
74100;SDS011;62462;52.530;21.682;2023-03-12T05:53:03;9.80;;;6.13;;
74100;SDS011;62462;52.530;21.682;2023-03-12T05:55:29;14.87;;;6.87;;
74100;SDS011;62462;52.530;21.682;2023-03-12T05:57:58;13.33;;;6.83;;
74100;SDS011;62462;52.530;21.682;2023-03-12T06:00:23;12.27;;;7.00;;
74100;SDS011;62462;52.530;21.682;2023-03-12T06:02:49;12.97;;;6.30;;
74100;SDS011;62462;52.530;21.682;2023-03-12T06:05:15;9.57;;;6.00;;
74100;SDS011;62462;52.530;21.682;2023-03-12T06:07:41;9.07;;;5.70;;
74100;SDS011;62462;52.530;21.682;2023-03-12T06:10:06;11.67;;;6.83;;
74100;SDS011;62462;52.530;21.682;2023-03-12T06:12:33;11.53;;;5.90;;
74100;SDS011;62462;52.530;21.682;2023-03-12T06:14:59;10.90;;;6.07;;
74100;SDS011;62462;52.530;21.682;2023-03-12T06:17:24;9.80;;;5.77;;
74100;SDS011;62462;52.530;21.682;2023-03-12T06:19:50;9.80;;;5.90;;
74100;SDS011;62462;52.530;21.682;2023-03-12T06:22:17;10.17;;;6.30;;
74100;SDS011;62462;52.530;21.682;2023-03-12T06:24:43;8.17;;;5.60;;
74100;SDS011;62462;52.530;21.682;2023-03-12T06:27:12;11.70;;;5.57;;
74100;SDS011;62462;52.530;21.682;2023-03-12T06:29:40;10.97;;;5.63;;
74100;SDS011;62462;52.530;21.682;2023-03-12T06:32:06;10.73;;;6.17;;
74100;SDS011;62462;52.530;21.682;2023-03-12T06:34:32;8.70;;;5.27;;
74100;SDS011;62462;52.530;21.682;2023-03-12T06:36:59;10.17;;;5.13;;
74100;SDS011;62462;52.530;21.682;2023-03-12T06:39:25;9.47;;;5.00;;
74100;SDS011;62462;52.530;21.682;2023-03-12T06:41:51;9.57;;;5.70;;
74100;SDS011;62462;52.530;21.682;2023-03-12T06:44:17;13.03;;;5.10;;
74100;SDS011;62462;52.530;21.682;2023-03-12T06:46:42;8.43;;;5.43;;
74100;SDS011;62462;52.530;21.682;2023-03-12T06:49:09;10.13;;;5.10;;
74100;SDS011;62462;52.530;21.682;2023-03-12T06:51:35;8.27;;;5.23;;
74100;SDS011;62462;52.530;21.682;2023-03-12T06:54:01;9.33;;;6.10;;
74100;SDS011;62462;52.530;21.682;2023-03-12T06:56:28;8.77;;;4.73;;
74100;SDS011;62462;52.530;21.682;2023-03-12T06:58:54;8.70;;;5.40;;
74100;SDS011;62462;52.530;21.682;2023-03-12T07:01:20;6.57;;;4.30;;
74100;SDS011;62462;52.530;21.682;2023-03-12T07:03:46;6.67;;;4.73;;
74100;SDS011;62462;52.530;21.682;2023-03-12T07:06:16;8.63;;;4.87;;
74100;SDS011;62462;52.530;21.682;2023-03-12T07:08:43;8.40;;;4.53;;
74100;SDS011;62462;52.530;21.682;2023-03-12T07:11:09;7.27;;;3.80;;
74100;SDS011;62462;52.530;21.682;2023-03-12T07:13:36;6.23;;;3.73;;
74100;SDS011;62462;52.530;21.682;2023-03-12T07:16:02;8.50;;;4.30;;
74100;SDS011;62462;52.530;21.682;2023-03-12T07:18:28;13.50;;;4.33;;
74100;SDS011;62462;52.530;21.682;2023-03-12T07:20:54;27.67;;;14.20;;
74100;SDS011;62462;52.530;21.682;2023-03-12T07:23:20;9.13;;;6.37;;
74100;SDS011;62462;52.530;21.682;2023-03-12T07:25:46;7.10;;;4.03;;
74100;SDS011;62462;52.530;21.682;2023-03-12T07:28:12;8.60;;;5.07;;
74100;SDS011;62462;52.530;21.682;2023-03-12T07:30:39;8.53;;;6.60;;
74100;SDS011;62462;52.530;21.682;2023-03-12T07:33:06;15.23;;;8.97;;
74100;SDS011;62462;52.530;21.682;2023-03-12T07:35:36;6.43;;;3.80;;
74100;SDS011;62462;52.530;21.682;2023-03-12T07:38:03;10.67;;;4.73;;
74100;SDS011;62462;52.530;21.682;2023-03-12T07:40:30;12.23;;;5.10;;
74100;SDS011;62462;52.530;21.682;2023-03-12T07:42:56;7.03;;;4.17;;
74100;SDS011;62462;52.530;21.682;2023-03-12T07:45:22;7.13;;;3.17;;
74100;SDS011;62462;52.530;21.682;2023-03-12T07:47:48;11.03;;;5.40;;
74100;SDS011;62462;52.530;21.682;2023-03-12T07:50:14;10.37;;;5.63;;
74100;SDS011;62462;52.530;21.682;2023-03-12T07:52:41;7.73;;;4.03;;
74100;SDS011;62462;52.530;21.682;2023-03-12T07:55:08;5.30;;;3.23;;
74100;SDS011;62462;52.530;21.682;2023-03-12T07:57:34;12.90;;;5.03;;
74100;SDS011;62462;52.530;21.682;2023-03-12T08:00:00;5.13;;;2.83;;
74100;SDS011;62462;52.530;21.682;2023-03-12T08:02:26;5.10;;;2.80;;
74100;SDS011;62462;52.530;21.682;2023-03-12T08:04:51;5.23;;;2.90;;
74100;SDS011;62462;52.530;21.682;2023-03-12T08:07:17;7.50;;;3.10;;
74100;SDS011;62462;52.530;21.682;2023-03-12T08:09:43;4.82;;;2.38;;
74100;SDS011;62462;52.530;21.682;2023-03-12T08:12:09;8.60;;;2.80;;
74100;SDS011;62462;52.530;21.682;2023-03-12T08:14:35;3.75;;;1.50;;
74100;SDS011;62462;52.530;21.682;2023-03-12T08:17:01;4.53;;;2.30;;
74100;SDS011;62462;52.530;21.682;2023-03-12T08:19:26;6.75;;;3.03;;
74100;SDS011;62462;52.530;21.682;2023-03-12T08:21:52;4.47;;;1.65;;
74100;SDS011;62462;52.530;21.682;2023-03-12T08:24:19;10.45;;;5.60;;
74100;SDS011;62462;52.530;21.682;2023-03-12T08:26:45;7.28;;;2.55;;
74100;SDS011;62462;52.530;21.682;2023-03-12T08:29:12;13.85;;;6.78;;
74100;SDS011;62462;52.530;21.682;2023-03-12T08:31:37;4.03;;;2.35;;
74100;SDS011;62462;52.530;21.682;2023-03-12T08:34:03;5.55;;;2.65;;
74100;SDS011;62462;52.530;21.682;2023-03-12T08:36:29;4.88;;;1.95;;
74100;SDS011;62462;52.530;21.682;2023-03-12T08:38:55;3.55;;;1.88;;
74100;SDS011;62462;52.530;21.682;2023-03-12T08:41:20;5.95;;;1.73;;
74100;SDS011;62462;52.530;21.682;2023-03-12T08:43:46;4.82;;;1.48;;
74100;SDS011;62462;52.530;21.682;2023-03-12T08:46:12;5.35;;;1.65;;
74100;SDS011;62462;52.530;21.682;2023-03-12T08:48:38;3.28;;;1.80;;
74100;SDS011;62462;52.530;21.682;2023-03-12T08:51:04;7.35;;;3.42;;
74100;SDS011;62462;52.530;21.682;2023-03-12T08:53:32;2.75;;;1.92;;
74100;SDS011;62462;52.530;21.682;2023-03-12T08:55:59;10.57;;;2.28;;
74100;SDS011;62462;52.530;21.682;2023-03-12T08:58:26;14.35;;;5.43;;
74100;SDS011;62462;52.530;21.682;2023-03-12T09:00:52;3.20;;;1.30;;
74100;SDS011;62462;52.530;21.682;2023-03-12T09:03:19;3.65;;;2.05;;
74100;SDS011;62462;52.530;21.682;2023-03-12T09:05:46;2.83;;;1.48;;
74100;SDS011;62462;52.530;21.682;2023-03-12T09:08:12;4.63;;;1.90;;
74100;SDS011;62462;52.530;21.682;2023-03-12T09:10:38;5.68;;;1.75;;
74100;SDS011;62462;52.530;21.682;2023-03-12T09:13:04;3.40;;;1.20;;
74100;SDS011;62462;52.530;21.682;2023-03-12T09:15:31;3.97;;;1.42;;
74100;SDS011;62462;52.530;21.682;2023-03-12T09:17:57;3.38;;;1.55;;
74100;SDS011;62462;52.530;21.682;2023-03-12T09:20:23;2.45;;;1.30;;
74100;SDS011;62462;52.530;21.682;2023-03-12T09:22:50;4.47;;;1.48;;
74100;SDS011;62462;52.530;21.682;2023-03-12T09:25:15;2.83;;;1.50;;
74100;SDS011;62462;52.530;21.682;2023-03-12T09:27:42;3.42;;;1.10;;
74100;SDS011;62462;52.530;21.682;2023-03-12T09:30:13;6.93;;;1.27;;
74100;SDS011;62462;52.530;21.682;2023-03-12T09:32:41;4.65;;;2.40;;
74100;SDS011;62462;52.530;21.682;2023-03-12T09:35:08;3.22;;;1.42;;
74100;SDS011;62462;52.530;21.682;2023-03-12T09:37:34;3.20;;;1.17;;
74100;SDS011;62462;52.530;21.682;2023-03-12T09:40:00;3.85;;;2.05;;
74100;SDS011;62462;52.530;21.682;2023-03-12T09:42:40;5.82;;;2.20;;
74100;SDS011;62462;52.530;21.682;2023-03-12T09:45:26;3.88;;;1.30;;
74100;SDS011;62462;52.530;21.682;2023-03-12T09:47:59;4.32;;;1.27;;
74100;SDS011;62462;52.530;21.682;2023-03-12T09:50:36;4.15;;;1.38;;
74100;SDS011;62462;52.530;21.682;2023-03-12T09:53:12;3.30;;;1.17;;
74100;SDS011;62462;52.530;21.682;2023-03-12T09:55:39;4.10;;;1.75;;
74100;SDS011;62462;52.530;21.682;2023-03-12T09:58:10;4.05;;;1.20;;
74100;SDS011;62462;52.530;21.682;2023-03-12T10:00:50;2.65;;;1.00;;
74100;SDS011;62462;52.530;21.682;2023-03-12T10:06:13;8.50;;;1.70;;
74100;SDS011;62462;52.530;21.682;2023-03-12T10:39:50;7.80;;;2.50;;
74100;SDS011;62462;52.530;21.682;2023-03-12T10:42:18;6.05;;;2.70;;
74100;SDS011;62462;52.530;21.682;2023-03-12T10:44:46;5.45;;;2.40;;
74100;SDS011;62462;52.530;21.682;2023-03-12T10:47:35;6.15;;;3.25;;
74100;SDS011;62462;52.530;21.682;2023-03-12T10:52:37;11.63;;;5.53;;
74100;SDS011;62462;52.530;21.682;2023-03-12T10:55:10;7.55;;;3.75;;
74100;SDS011;62462;52.530;21.682;2023-03-12T10:57:39;5.03;;;2.53;;
74100;SDS011;62462;52.530;21.682;2023-03-12T11:00:06;7.60;;;3.70;;
74100;SDS011;62462;52.530;21.682;2023-03-12T11:02:40;16.83;;;5.80;;
74100;SDS011;62462;52.530;21.682;2023-03-12T11:05:20;15.35;;;3.95;;
74100;SDS011;62462;52.530;21.682;2023-03-12T11:07:50;12.35;;;4.25;;
74100;SDS011;62462;52.530;21.682;2023-03-12T11:10:20;6.93;;;2.90;;
74100;SDS011;62462;52.530;21.682;2023-03-12T11:13:05;5.22;;;1.98;;
74100;SDS011;62462;52.530;21.682;2023-03-12T11:15:46;10.95;;;5.35;;
74100;SDS011;62462;52.530;21.682;2023-03-12T11:23:35;16.25;;;3.60;;
74100;SDS011;62462;52.530;21.682;2023-03-12T11:28:47;7.57;;;2.08;;
74100;SDS011;62462;52.530;21.682;2023-03-12T11:31:26;4.97;;;2.35;;
74100;SDS011;62462;52.530;21.682;2023-03-12T11:33:56;4.50;;;1.77;;
74100;SDS011;62462;52.530;21.682;2023-03-12T11:39:15;6.55;;;2.20;;
74100;SDS011;62462;52.530;21.682;2023-03-12T11:52:27;3.53;;;2.03;;
74100;SDS011;62462;52.530;21.682;2023-03-12T12:08:09;8.38;;;3.42;;
74100;SDS011;62462;52.530;21.682;2023-03-12T12:16:50;6.70;;;3.30;;
74100;SDS011;62462;52.530;21.682;2023-03-12T12:24:47;13.50;;;5.97;;
74100;SDS011;62462;52.530;21.682;2023-03-12T12:27:23;7.57;;;3.58;;
74100;SDS011;62462;52.530;21.682;2023-03-12T12:37:57;3.42;;;1.20;;
74100;SDS011;62462;52.530;21.682;2023-03-12T12:40:39;6.68;;;1.80;;
74100;SDS011;62462;52.530;21.682;2023-03-12T12:45:45;5.13;;;2.15;;
74100;SDS011;62462;52.530;21.682;2023-03-12T12:48:18;6.50;;;1.65;;
74100;SDS011;62462;52.530;21.682;2023-03-12T12:50:49;5.50;;;1.42;;
74100;SDS011;62462;52.530;21.682;2023-03-12T12:53:26;6.82;;;1.45;;
74100;SDS011;62462;52.530;21.682;2023-03-12T13:01:27;6.53;;;1.98;;
74100;SDS011;62462;52.530;21.682;2023-03-12T13:03:56;5.75;;;2.03;;
74100;SDS011;62462;52.530;21.682;2023-03-12T13:06:51;4.95;;;2.10;;
74100;SDS011;62462;52.530;21.682;2023-03-12T13:09:19;4.10;;;1.20;;
74100;SDS011;62462;52.530;21.682;2023-03-12T13:11:47;3.00;;;1.25;;
74100;SDS011;62462;52.530;21.682;2023-03-12T13:14:19;3.60;;;1.08;;
74100;SDS011;62462;52.530;21.682;2023-03-12T13:16:47;4.22;;;1.95;;
74100;SDS011;62462;52.530;21.682;2023-03-12T13:27:39;4.93;;;1.35;;
74100;SDS011;62462;52.530;21.682;2023-03-12T13:33:15;5.13;;;1.20;;
74100;SDS011;62462;52.530;21.682;2023-03-12T13:36:02;4.78;;;1.42;;
74100;SDS011;62462;52.530;21.682;2023-03-12T13:38:38;9.15;;;4.60;;
74100;SDS011;62462;52.530;21.682;2023-03-12T13:41:28;5.20;;;1.85;;
74100;SDS011;62462;52.530;21.682;2023-03-12T13:43:55;6.22;;;2.58;;
74100;SDS011;62462;52.530;21.682;2023-03-12T13:49:05;2.80;;;1.13;;
74100;SDS011;62462;52.530;21.682;2023-03-12T13:51:57;3.47;;;1.60;;
74100;SDS011;62462;52.530;21.682;2023-03-12T13:54:40;3.63;;;1.00;;
74100;SDS011;62462;52.530;21.682;2023-03-12T13:57:10;4.88;;;2.85;;
74100;SDS011;62462;52.530;21.682;2023-03-12T13:59:56;4.70;;;1.25;;
74100;SDS011;62462;52.530;21.682;2023-03-12T14:02:29;3.30;;;1.33;;
74100;SDS011;62462;52.530;21.682;2023-03-12T14:05:01;3.80;;;1.02;;
74100;SDS011;62462;52.530;21.682;2023-03-12T14:13:17;6.60;;;2.78;;
74100;SDS011;62462;52.530;21.682;2023-03-12T14:18:45;6.47;;;2.30;;
74100;SDS011;62462;52.530;21.682;2023-03-12T14:21:13;3.80;;;1.70;;
74100;SDS011;62462;52.530;21.682;2023-03-12T14:23:45;18.40;;;8.75;;
74100;SDS011;62462;52.530;21.682;2023-03-12T14:26:20;5.78;;;2.30;;
74100;SDS011;62462;52.530;21.682;2023-03-12T14:28:54;5.47;;;3.15;;
74100;SDS011;62462;52.530;21.682;2023-03-12T14:31:22;4.07;;;1.50;;
74100;SDS011;62462;52.530;21.682;2023-03-12T14:36:44;3.63;;;1.73;;
74100;SDS011;62462;52.530;21.682;2023-03-12T14:39:20;6.15;;;2.13;;
74100;SDS011;62462;52.530;21.682;2023-03-12T14:42:07;4.55;;;1.70;;
74100;SDS011;62462;52.530;21.682;2023-03-12T14:44:35;2.90;;;1.25;;
74100;SDS011;62462;52.530;21.682;2023-03-12T14:47:03;3.03;;;0.98;;
74100;SDS011;62462;52.530;21.682;2023-03-12T14:49:37;2.40;;;1.00;;
74100;SDS011;62462;52.530;21.682;2023-03-12T14:52:11;5.47;;;1.70;;
74100;SDS011;62462;52.530;21.682;2023-03-12T14:54:38;5.10;;;1.70;;
74100;SDS011;62462;52.530;21.682;2023-03-12T14:57:18;3.92;;;1.08;;
74100;SDS011;62462;52.530;21.682;2023-03-12T14:59:50;6.55;;;1.40;;
74100;SDS011;62462;52.530;21.682;2023-03-12T15:02:18;2.85;;;1.35;;
74100;SDS011;62462;52.530;21.682;2023-03-12T15:04:44;6.78;;;1.23;;
74100;SDS011;62462;52.530;21.682;2023-03-12T15:07:12;4.45;;;1.20;;
74100;SDS011;62462;52.530;21.682;2023-03-12T15:09:43;3.90;;;1.83;;
74100;SDS011;62462;52.530;21.682;2023-03-12T15:14:49;4.50;;;1.35;;
74100;SDS011;62462;52.530;21.682;2023-03-12T15:17:20;7.53;;;2.85;;
74100;SDS011;62462;52.530;21.682;2023-03-12T15:19:48;5.95;;;2.65;;
74100;SDS011;62462;52.530;21.682;2023-03-12T15:22:16;9.23;;;2.08;;
74100;SDS011;62462;52.530;21.682;2023-03-12T15:24:44;5.25;;;2.05;;
74100;SDS011;62462;52.530;21.682;2023-03-12T15:29:54;10.03;;;2.43;;
74100;SDS011;62462;52.530;21.682;2023-03-12T15:32:22;14.40;;;2.92;;
74100;SDS011;62462;52.530;21.682;2023-03-12T15:34:49;4.55;;;1.70;;
74100;SDS011;62462;52.530;21.682;2023-03-12T15:37:24;4.00;;;1.48;;
74100;SDS011;62462;52.530;21.682;2023-03-12T15:40:26;6.95;;;1.95;;
74100;SDS011;62462;52.530;21.682;2023-03-12T15:42:52;7.50;;;1.90;;
74100;SDS011;62462;52.530;21.682;2023-03-12T15:45:22;5.47;;;1.70;;
74100;SDS011;62462;52.530;21.682;2023-03-12T15:47:52;7.18;;;3.00;;
74100;SDS011;62462;52.530;21.682;2023-03-12T15:50:22;7.60;;;1.67;;
74100;SDS011;62462;52.530;21.682;2023-03-12T15:53:36;5.15;;;1.70;;
74100;SDS011;62462;52.530;21.682;2023-03-12T15:55:44;5.75;;;2.38;;
74100;SDS011;62462;52.530;21.682;2023-03-12T15:58:23;7.32;;;1.65;;
74100;SDS011;62462;52.530;21.682;2023-03-12T16:00:52;9.70;;;2.42;;
74100;SDS011;62462;52.530;21.682;2023-03-12T16:03:19;6.05;;;2.00;;
74100;SDS011;62462;52.530;21.682;2023-03-12T16:05:46;4.40;;;1.88;;
74100;SDS011;62462;52.530;21.682;2023-03-12T16:10:45;6.90;;;2.67;;
74100;SDS011;62462;52.530;21.682;2023-03-12T16:13:13;5.88;;;3.42;;
74100;SDS011;62462;52.530;21.682;2023-03-12T16:15:41;7.25;;;2.90;;
74100;SDS011;62462;52.530;21.682;2023-03-12T16:18:14;5.80;;;3.20;;
74100;SDS011;62462;52.530;21.682;2023-03-12T16:23:07;5.97;;;2.33;;
74100;SDS011;62462;52.530;21.682;2023-03-12T16:25:34;5.38;;;2.58;;
74100;SDS011;62462;52.530;21.682;2023-03-12T16:28:02;5.03;;;2.33;;
74100;SDS011;62462;52.530;21.682;2023-03-12T16:30:31;7.53;;;2.22;;
74100;SDS011;62462;52.530;21.682;2023-03-12T16:32:58;6.72;;;2.58;;
74100;SDS011;62462;52.530;21.682;2023-03-12T16:35:25;8.38;;;2.35;;
74100;SDS011;62462;52.530;21.682;2023-03-12T16:37:52;5.85;;;2.40;;
74100;SDS011;62462;52.530;21.682;2023-03-12T16:40:18;6.15;;;2.08;;
74100;SDS011;62462;52.530;21.682;2023-03-12T16:42:46;6.22;;;2.80;;
74100;SDS011;62462;52.530;21.682;2023-03-12T16:45:15;6.68;;;3.25;;
74100;SDS011;62462;52.530;21.682;2023-03-12T16:47:42;5.05;;;2.67;;
74100;SDS011;62462;52.530;21.682;2023-03-12T16:52:41;5.10;;;1.92;;
74100;SDS011;62462;52.530;21.682;2023-03-12T16:55:07;10.15;;;3.17;;
74100;SDS011;62462;52.530;21.682;2023-03-12T16:57:34;5.68;;;2.65;;
74100;SDS011;62462;52.530;21.682;2023-03-12T17:00:03;9.10;;;2.35;;
74100;SDS011;62462;52.530;21.682;2023-03-12T17:02:32;5.88;;;2.35;;
74100;SDS011;62462;52.530;21.682;2023-03-12T17:04:59;9.82;;;2.95;;
74100;SDS011;62462;52.530;21.682;2023-03-12T17:07:25;7.03;;;2.40;;